Time;durP1;ratioP1;P1;durP2;ratioP2;P2;SDS_P1;SDS_P2;PMS_P1;PMS_P2;Temp;Humidity;BMP_temperature;BMP_pressure;BME280_temperature;BME280_humidity;BME280_pressure;Samples;Min_cycle;Max_cycle;Signal;HPM_P1;HPM_P2
2023/11/08 00:01:37;;;;;;;0.95;0.40;;;;;;;;;;5019397;28;20037;-76
2023/11/08 00:04:04;;;;;;;0.50;0.30;;;;;;;;;;5037343;28;20026;-75
2023/11/08 00:06:30;;;;;;;1.20;0.63;;;;;;;;;;5027441;28;20025;-76
2023/11/08 00:08:58;;;;;;;2.78;0.80;;;;;;;;;;5046230;28;20026;-76
2023/11/08 00:11:24;;;;;;;1.05;0.70;;;;;;;;;;5040556;28;20033;-76
2023/11/08 00:13:51;;;;;;;1.02;0.60;;;;;;;;;;5048046;28;20112;-76
2023/11/08 00:16:17;;;;;;;0.77;0.52;;;;;;;;;;5059339;28;20391;-76
2023/11/08 00:18:46;;;;;;;0.68;0.50;;;;;;;;;;5038219;28;20031;-76
2023/11/08 00:21:12;;;;;;;0.82;0.55;;;;;;;;;;5045026;28;20021;-75
2023/11/08 00:23:39;;;;;;;1.58;0.70;;;;;;;;;;5044945;28;20076;-76
2023/11/08 00:26:06;;;;;;;1.20;0.50;;;;;;;;;;5060160;28;20108;-76
2023/11/08 00:28:32;;;;;;;0.80;0.47;;;;;;;;;;5059766;28;20021;-77
2023/11/08 00:30:58;;;;;;;1.33;0.40;;;;;;;;;;5056383;28;20025;-77
2023/11/08 00:33:27;;;;;;;1.67;0.80;;;;;;;;;;5055149;28;20029;-77
2023/11/08 00:35:53;;;;;;;2.08;0.52;;;;;;;;;;5037114;28;20021;-77
2023/11/08 00:38:19;;;;;;;0.55;0.47;;;;;;;;;;5061707;28;20025;-76
2023/11/08 00:40:46;;;;;;;2.38;0.70;;;;;;;;;;5056186;28;20033;-76
2023/11/08 00:43:12;;;;;;;1.67;0.60;;;;;;;;;;5066946;28;20114;-76
2023/11/08 00:45:38;;;;;;;1.58;0.60;;;;;;;;;;5059380;28;20029;-76
2023/11/08 00:48:05;;;;;;;2.30;0.90;;;;;;;;;;5059405;28;20017;-76
2023/11/08 00:50:31;;;;;;;2.15;0.63;;;;;;;;;;5042914;28;20078;-76
2023/11/08 00:53:00;;;;;;;1.52;0.82;;;;;;;;;;5059418;28;20028;-76
2023/11/08 00:55:26;;;;;;;1.65;0.68;;;;;;;;;;5040723;28;20036;-76
2023/11/08 00:57:53;;;;;;;1.23;0.60;;;;;;;;;;5041231;28;20079;-75
2023/11/08 01:00:19;;;;;;;0.98;0.70;;;;;;;;;;5062090;28;20092;-74
2023/11/08 01:02:46;;;;;;;0.75;0.50;;;;;;;;;;5062429;28;20025;-75
2023/11/08 01:05:12;;;;;;;0.73;0.40;;;;;;;;;;5076845;28;20032;-75
2023/11/08 01:07:38;;;;;;;1.52;0.95;;;;;;;;;;5053341;28;20063;-75
2023/11/08 01:10:05;;;;;;;0.85;0.40;;;;;;;;;;5052488;28;20085;-74
2023/11/08 01:12:31;;;;;;;0.30;0.30;;;;;;;;;;5057146;28;20069;-75
2023/11/08 01:14:57;;;;;;;0.77;0.43;;;;;;;;;;5057020;28;20037;-74
2023/11/08 01:17:24;;;;;;;0.95;0.65;;;;;;;;;;5057370;28;20017;-74
2023/11/08 01:19:50;;;;;;;0.57;0.40;;;;;;;;;;5056788;28;20104;-74
2023/11/08 01:22:16;;;;;;;1.13;0.40;;;;;;;;;;5056328;28;20104;-76
2023/11/08 01:24:43;;;;;;;0.98;0.30;;;;;;;;;;5035118;28;20059;-75
2023/11/08 01:27:09;;;;;;;1.13;0.47;;;;;;;;;;5041950;28;20029;-75
2023/11/08 01:29:36;;;;;;;0.50;0.30;;;;;;;;;;5040574;28;20021;-75
2023/11/08 01:32:02;;;;;;;0.95;0.32;;;;;;;;;;5023448;28;20033;-75
2023/11/08 01:34:29;;;;;;;0.90;0.22;;;;;;;;;;5045539;28;20116;-75
2023/11/08 01:36:55;;;;;;;0.90;0.47;;;;;;;;;;5058581;28;20092;-75
2023/11/08 01:39:21;;;;;;;1.27;0.50;;;;;;;;;;5064395;28;20025;-75
2023/11/08 01:41:49;;;;;;;0.73;0.38;;;;;;;;;;5073637;28;20048;-74
2023/11/08 01:44:21;;;;;;;1.27;0.30;;;;;;;;;;5079498;28;20049;-75
2023/11/08 01:46:49;;;;;;;0.88;0.30;;;;;;;;;;5091019;28;20021;-76
2023/11/08 01:49:15;;;;;;;0.65;0.52;;;;;;;;;;5054441;28;20028;-76
2023/11/08 01:51:42;;;;;;;1.02;0.55;;;;;;;;;;5070231;28;20009;-74
2023/11/08 01:54:09;;;;;;;0.75;0.40;;;;;;;;;;5077072;28;20060;-75
2023/11/08 01:56:35;;;;;;;1.35;0.55;;;;;;;;;;5076384;28;20013;-75
2023/11/08 01:59:01;;;;;;;0.52;0.30;;;;;;;;;;5062900;28;20029;-76
2023/11/08 02:01:28;;;;;;;1.50;1.00;;;;;;;;;;5039249;28;20156;-76
2023/11/08 02:03:55;;;;;;;1.75;0.60;;;;;;;;;;5059046;28;20021;-75
2023/11/08 02:06:23;;;;;;;0.43;0.30;;;;;;;;;;5039701;28;20028;-76
2023/11/08 02:08:49;;;;;;;1.60;0.40;;;;;;;;;;5058079;28;20045;-77
2023/11/08 02:11:15;;;;;;;0.38;0.30;;;;;;;;;;5041892;28;20037;-75
2023/11/08 02:13:42;;;;;;;0.75;0.40;;;;;;;;;;5063370;28;20036;-75
2023/11/08 02:16:08;;;;;;;0.47;0.30;;;;;;;;;;5075595;28;20033;-76
2023/11/08 02:18:34;;;;;;;0.65;0.22;;;;;;;;;;5040013;28;20036;-76
2023/11/08 02:21:01;;;;;;;1.38;0.52;;;;;;;;;;5057022;28;20464;-75
2023/11/08 02:23:27;;;;;;;3.03;0.30;;;;;;;;;;5057358;28;20020;-77
2023/11/08 02:25:54;;;;;;;2.55;0.40;;;;;;;;;;5058565;28;20040;-76
2023/11/08 02:28:20;;;;;;;0.40;0.30;;;;;;;;;;5078376;28;20077;-76
2023/11/08 02:30:54;;;;;;;0.32;0.20;;;;;;;;;;5065918;28;20428;-75
2023/11/08 02:33:23;;;;;;;1.20;0.30;;;;;;;;;;5043575;28;20029;-75
2023/11/08 02:35:50;;;;;;;0.30;0.20;;;;;;;;;;5039645;28;20056;-76
2023/11/08 02:38:16;;;;;;;0.10;0.10;;;;;;;;;;5057021;28;20025;-76
2023/11/08 02:40:43;;;;;;;0.63;0.40;;;;;;;;;;5039173;28;20403;-76
2023/11/08 02:43:09;;;;;;;0.30;0.20;;;;;;;;;;5058189;28;20088;-76
2023/11/08 02:45:35;;;;;;;0.55;0.35;;;;;;;;;;5057980;28;20017;-76
2023/11/08 02:48:02;;;;;;;0.65;0.20;;;;;;;;;;5057621;28;20081;-76
2023/11/08 02:50:28;;;;;;;0.85;0.20;;;;;;;;;;5038913;28;20495;-76
2023/11/08 02:52:55;;;;;;;0.20;0.20;;;;;;;;;;5039037;28;20032;-76
2023/11/08 02:55:22;;;;;;;0.20;0.20;;;;;;;;;;5056923;28;20074;-76
2023/11/08 02:57:48;;;;;;;0.47;0.30;;;;;;;;;;5058257;28;20033;-76
2023/11/08 03:00:14;;;;;;;0.55;0.43;;;;;;;;;;5038525;28;20078;-76
2023/11/08 03:02:41;;;;;;;0.57;0.25;;;;;;;;;;5039403;28;20447;-76
2023/11/08 03:05:07;;;;;;;0.20;0.20;;;;;;;;;;5038738;28;20021;-77
2023/11/08 03:07:33;;;;;;;0.28;0.20;;;;;;;;;;5039005;28;20025;-76
2023/11/08 03:09:59;;;;;;;0.13;0.13;;;;;;;;;;5058729;28;20117;-76
2023/11/08 03:12:26;;;;;;;1.90;0.20;;;;;;;;;;5070298;28;20027;-76
2023/11/08 03:14:52;;;;;;;0.55;0.20;;;;;;;;;;5086738;28;20020;-76
2023/11/08 03:17:18;;;;;;;0.30;0.20;;;;;;;;;;5070066;28;20368;-76
2023/11/08 03:19:45;;;;;;;0.10;0.10;;;;;;;;;;5090562;28;20044;-76
2023/11/08 03:22:13;;;;;;;0.10;0.10;;;;;;;;;;5090622;28;20127;-75
2023/11/08 03:24:39;;;;;;;0.68;0.35;;;;;;;;;;5091061;28;20020;-74
2023/11/08 03:27:05;;;;;;;0.98;0.40;;;;;;;;;;5077134;28;20504;-75
2023/11/08 03:29:32;;;;;;;0.43;0.30;;;;;;;;;;5036937;28;20017;-75
2023/11/08 03:31:58;;;;;;;0.20;0.20;;;;;;;;;;5036458;28;20427;-75
2023/11/08 03:34:28;;;;;;;0.38;0.25;;;;;;;;;;5019623;28;20037;-75
2023/11/08 03:36:54;;;;;;;0.30;0.20;;;;;;;;;;5043267;28;20021;-75
2023/11/08 03:39:20;;;;;;;0.45;0.20;;;;;;;;;;5056281;28;20071;-75
2023/11/08 03:41:47;;;;;;;0.35;0.20;;;;;;;;;;5038610;28;20028;-75
2023/11/08 03:44:13;;;;;;;1.25;0.32;;;;;;;;;;5038808;28;20027;-76
2023/11/08 03:46:39;;;;;;;0.68;0.10;;;;;;;;;;5038628;28;20025;-76
2023/11/08 03:49:05;;;;;;;0.95;0.30;;;;;;;;;;5059082;28;20419;-75
2023/11/08 03:51:32;;;;;;;1.13;0.25;;;;;;;;;;5061114;28;20045;-77
2023/11/08 03:53:58;;;;;;;0.43;0.30;;;;;;;;;;5064225;28;20057;-76
2023/11/08 03:56:27;;;;;;;0.40;0.20;;;;;;;;;;5057969;28;20039;-76
2023/11/08 03:58:53;;;;;;;1.50;0.30;;;;;;;;;;5059588;28;20155;-76
2023/11/08 04:01:19;;;;;;;0.32;0.20;;;;;;;;;;5056660;28;20033;-76
2023/11/08 04:03:46;;;;;;;1.83;0.20;;;;;;;;;;5054655;28;20083;-78
2023/11/08 04:06:12;;;;;;;0.38;0.20;;;;;;;;;;5067075;28;20068;-77
2023/11/08 04:08:38;;;;;;;0.63;0.43;;;;;;;;;;5055837;28;20095;-77
2023/11/08 04:11:04;;;;;;;0.85;0.20;;;;;;;;;;5068566;28;20418;-77
2023/11/08 04:13:30;;;;;;;0.60;0.13;;;;;;;;;;5063825;28;20029;-78
2023/11/08 04:15:56;;;;;;;0.32;0.32;;;;;;;;;;5065324;28;20036;-79
2023/11/08 04:18:22;;;;;;;0.68;0.30;;;;;;;;;;5073628;28;20036;-78
2023/11/08 04:20:48;;;;;;;0.10;0.10;;;;;;;;;;5058350;28;20017;-77
2023/11/08 04:23:15;;;;;;;0.10;0.10;;;;;;;;;;5065839;28;20051;-76
2023/11/08 04:25:44;;;;;;;0.10;0.10;;;;;;;;;;5078126;28;20017;-77
2023/11/08 04:28:10;;;;;;;0.10;0.10;;;;;;;;;;5078305;28;20024;-77
2023/11/08 04:30:36;;;;;;;0.10;0.10;;;;;;;;;;5078380;28;20016;-76
2023/11/08 04:33:02;;;;;;;0.63;0.17;;;;;;;;;;5060549;28;20104;-77
2023/11/08 04:35:29;;;;;;;0.65;0.22;;;;;;;;;;5054495;28;20312;-77
2023/11/08 04:37:55;;;;;;;0.10;0.10;;;;;;;;;;5076024;28;20063;-76
2023/11/08 04:40:22;;;;;;;0.10;0.10;;;;;;;;;;5063074;28;20024;-77
2023/11/08 04:42:48;;;;;;;0.55;0.22;;;;;;;;;;5049960;28;20033;-77
2023/11/08 04:45:14;;;;;;;0.10;0.10;;;;;;;;;;5043692;28;20021;-76
2023/11/08 04:47:40;;;;;;;0.20;0.20;;;;;;;;;;5055654;28;20033;-76
2023/11/08 04:50:07;;;;;;;0.47;0.13;;;;;;;;;;5047424;28;20503;-76
2023/11/08 04:52:33;;;;;;;0.13;0.10;;;;;;;;;;5062397;28;20032;-75
2023/11/08 04:54:59;;;;;;;0.52;0.20;;;;;;;;;;5062989;28;20446;-76
2023/11/08 04:57:25;;;;;;;0.55;0.20;;;;;;;;;;5061157;28;20024;-76
2023/11/08 04:59:52;;;;;;;0.20;0.20;;;;;;;;;;5059471;28;20021;-77
2023/11/08 05:02:21;;;;;;;0.55;0.35;;;;;;;;;;5060152;28;20031;-76
2023/11/08 05:04:49;;;;;;;0.08;0.08;;;;;;;;;;5062023;28;20186;-77
2023/11/08 05:07:17;;;;;;;0.10;0.10;;;;;;;;;;5046682;28;20025;-77
2023/11/08 05:09:44;;;;;;;0.68;0.32;;;;;;;;;;5050007;28;20025;-76
2023/11/08 05:12:11;;;;;;;0.60;0.30;;;;;;;;;;5047134;28;20110;-76
2023/11/08 05:14:37;;;;;;;0.50;0.30;;;;;;;;;;5044022;28;20024;-76
2023/11/08 05:17:04;;;;;;;0.05;0.05;;;;;;;;;;5041640;28;20051;-75
2023/11/08 05:19:30;;;;;;;0.52;0.30;;;;;;;;;;5059459;28;20028;-77
2023/11/08 05:21:57;;;;;;;0.20;0.20;;;;;;;;;;5040279;28;20025;-77
2023/11/08 05:24:23;;;;;;;0.22;0.22;;;;;;;;;;5059124;28;20483;-77
2023/11/08 05:26:50;;;;;;;0.43;0.25;;;;;;;;;;5044022;28;20017;-77
2023/11/08 05:29:18;;;;;;;0.60;0.22;;;;;;;;;;5061971;28;20025;-76
2023/11/08 05:31:44;;;;;;;0.20;0.10;;;;;;;;;;5059296;28;20017;-76
2023/11/08 05:34:11;;;;;;;0.32;0.15;;;;;;;;;;5060265;28;20082;-76
2023/11/08 05:36:38;;;;;;;0.43;0.35;;;;;;;;;;5042162;28;20045;-77
2023/11/08 05:39:04;;;;;;;0.05;0.05;;;;;;;;;;5060053;28;20055;-78
2023/11/08 05:41:30;;;;;;;0.28;0.20;;;;;;;;;;5057998;28;20047;-76
2023/11/08 05:43:58;;;;;;;0.22;0.22;;;;;;;;;;5041841;28;20111;-76
2023/11/08 05:46:27;;;;;;;0.80;0.40;;;;;;;;;;5055372;28;20036;-77
2023/11/08 05:48:55;;;;;;;0.60;0.45;;;;;;;;;;5040292;28;20025;-76
2023/11/08 05:51:22;;;;;;;0.43;0.30;;;;;;;;;;5067436;28;20062;-79
2023/11/08 05:53:48;;;;;;;1.20;0.43;;;;;;;;;;5045235;28;20595;-76
2023/11/08 05:56:14;;;;;;;1.02;0.40;;;;;;;;;;5051769;28;20119;-75
2023/11/08 05:58:40;;;;;;;0.10;0.10;;;;;;;;;;5058140;28;20063;-75
2023/11/08 06:01:06;;;;;;;1.20;0.20;;;;;;;;;;5061749;28;20021;-76
2023/11/08 06:03:33;;;;;;;0.32;0.30;;;;;;;;;;5051144;28;20025;-77
2023/11/08 06:05:59;;;;;;;0.40;0.25;;;;;;;;;;5064499;28;20108;-75
2023/11/08 06:08:25;;;;;;;0.38;0.38;;;;;;;;;;5064073;28;20379;-76
2023/11/08 06:10:51;;;;;;;0.57;0.30;;;;;;;;;;5064260;28;20100;-75
2023/11/08 06:13:17;;;;;;;0.35;0.20;;;;;;;;;;5056323;28;20017;-74
2023/11/08 06:15:44;;;;;;;1.73;0.30;;;;;;;;;;5071558;28;20059;-77
2023/11/08 06:18:10;;;;;;;0.63;0.30;;;;;;;;;;5047894;28;20005;-77
2023/11/08 06:20:37;;;;;;;0.32;0.20;;;;;;;;;;5069936;28;20047;-76
2023/11/08 06:23:04;;;;;;;1.45;0.30;;;;;;;;;;5076469;28;20024;-77
2023/11/08 06:25:32;;;;;;;0.43;0.30;;;;;;;;;;5064470;28;20052;-74
2023/11/08 06:28:01;;;;;;;0.70;0.30;;;;;;;;;;5068578;28;20021;-77
2023/11/08 06:30:27;;;;;;;0.85;0.30;;;;;;;;;;5046073;28;20075;-77
2023/11/08 06:32:54;;;;;;;1.15;0.55;;;;;;;;;;5040758;28;20030;-75
2023/11/08 06:35:21;;;;;;;0.38;0.20;;;;;;;;;;5037682;28;20173;-75
2023/11/08 06:37:47;;;;;;;0.75;0.32;;;;;;;;;;5057048;28;20120;-75
2023/11/08 06:40:13;;;;;;;0.63;0.30;;;;;;;;;;5038362;28;20039;-76
2023/11/08 06:42:39;;;;;;;0.40;0.40;;;;;;;;;;5057272;28;20033;-75
2023/11/08 06:45:07;;;;;;;0.20;0.20;;;;;;;;;;5057635;28;20428;-76
2023/11/08 06:47:33;;;;;;;0.63;0.22;;;;;;;;;;5056294;28;20123;-77
2023/11/08 06:49:59;;;;;;;1.42;0.43;;;;;;;;;;5061538;28;20067;-76
2023/11/08 06:52:26;;;;;;;1.45;0.45;;;;;;;;;;5046426;28;20025;-79
2023/11/08 06:54:52;;;;;;;1.35;0.13;;;;;;;;;;5045349;28;20342;-77
2023/11/08 06:57:18;;;;;;;0.85;0.20;;;;;;;;;;5051613;28;20125;-76
2023/11/08 06:59:45;;;;;;;0.98;0.50;;;;;;;;;;5053295;28;20452;-77
2023/11/08 07:02:11;;;;;;;0.50;0.20;;;;;;;;;;5052085;28;20472;-76
2023/11/08 07:04:38;;;;;;;0.28;0.28;;;;;;;;;;5058330;28;20117;-77
2023/11/08 07:07:04;;;;;;;0.38;0.32;;;;;;;;;;5063210;28;20024;-79
2023/11/08 07:09:30;;;;;;;1.27;0.30;;;;;;;;;;5054134;28;20083;-77
2023/11/08 07:11:57;;;;;;;0.30;0.20;;;;;;;;;;5037159;28;20021;-77
2023/11/08 07:14:23;;;;;;;0.13;0.13;;;;;;;;;;5037106;28;20059;-77
2023/11/08 07:16:49;;;;;;;0.57;0.30;;;;;;;;;;5036465;28;20048;-77
2023/11/08 07:19:16;;;;;;;0.20;0.20;;;;;;;;;;5037705;28;20028;-77
2023/11/08 07:21:42;;;;;;;0.20;0.20;;;;;;;;;;5038681;28;20250;-76
2023/11/08 07:24:08;;;;;;;0.98;0.28;;;;;;;;;;5018735;28;20021;-75
2023/11/08 07:26:34;;;;;;;0.15;0.15;;;;;;;;;;5034268;28;20162;-77
2023/11/08 07:29:04;;;;;;;1.27;0.40;;;;;;;;;;5035220;28;20021;-76
2023/11/08 07:31:31;;;;;;;0.82;0.47;;;;;;;;;;5048017;28;20030;-77
2023/11/08 07:33:57;;;;;;;0.45;0.20;;;;;;;;;;5051783;28;20479;-76
2023/11/08 07:36:24;;;;;;;0.47;0.20;;;;;;;;;;5039883;28;20029;-77
2023/11/08 07:38:50;;;;;;;0.80;0.38;;;;;;;;;;5037966;28;20535;-77
2023/11/08 07:41:17;;;;;;;0.70;0.20;;;;;;;;;;5055357;28;20033;-75
2023/11/08 07:43:43;;;;;;;0.60;0.30;;;;;;;;;;5047423;28;20021;-76
2023/11/08 07:46:10;;;;;;;0.30;0.28;;;;;;;;;;5075003;28;20054;-76
2023/11/08 07:48:36;;;;;;;2.28;0.57;;;;;;;;;;5077730;28;20040;-76
2023/11/08 07:51:03;;;;;;;0.50;0.25;;;;;;;;;;5066182;28;20009;-75
2023/11/08 07:53:30;;;;;;;1.55;0.40;;;;;;;;;;5062878;28;20024;-74
2023/11/08 07:55:56;;;;;;;0.40;0.40;;;;;;;;;;5062160;28;20032;-75
2023/11/08 07:58:22;;;;;;;0.50;0.40;;;;;;;;;;5061120;28;20025;-75
2023/11/08 08:00:48;;;;;;;0.47;0.20;;;;;;;;;;5060203;28;20099;-76
2023/11/08 08:03:15;;;;;;;0.38;0.38;;;;;;;;;;5062884;28;20032;-77
2023/11/08 08:05:42;;;;;;;0.50;0.47;;;;;;;;;;5047420;28;20059;-77
2023/11/08 08:08:09;;;;;;;0.30;0.30;;;;;;;;;;5063074;28;20025;-77
2023/11/08 08:10:36;;;;;;;0.40;0.30;;;;;;;;;;5072982;28;20025;-76
2023/11/08 08:13:05;;;;;;;0.55;0.50;;;;;;;;;;5082143;28;20094;-77
2023/11/08 08:15:31;;;;;;;0.40;0.30;;;;;;;;;;5063498;28;20494;-77
2023/11/08 08:17:59;;;;;;;0.20;0.20;;;;;;;;;;5080549;28;20111;-75
2023/11/08 08:20:25;;;;;;;0.20;0.20;;;;;;;;;;5052964;28;20057;-75
2023/11/08 08:22:52;;;;;;;1.25;0.40;;;;;;;;;;5069522;28;20017;-76
2023/11/08 08:25:18;;;;;;;0.85;0.40;;;;;;;;;;5072768;28;20074;-76
2023/11/08 08:27:44;;;;;;;1.00;0.40;;;;;;;;;;5069355;28;20052;-76
2023/11/08 08:30:14;;;;;;;0.38;0.38;;;;;;;;;;5057482;28;20021;-76
2023/11/08 08:32:49;;;;;;;0.20;0.20;;;;;;;;;;5057693;28;20089;-75
2023/11/08 08:35:17;;;;;;;1.05;0.55;;;;;;;;;;5066740;28;20021;-75
2023/11/08 08:37:43;;;;;;;0.40;0.35;;;;;;;;;;5059125;28;20025;-77
2023/11/08 08:40:13;;;;;;;0.40;0.40;;;;;;;;;;5050328;28;20048;-76
2023/11/08 08:42:40;;;;;;;0.40;0.35;;;;;;;;;;5037983;28;20091;-77
2023/11/08 08:45:10;;;;;;;0.32;0.30;;;;;;;;;;5062624;28;20092;-77
2023/11/08 08:47:40;;;;;;;0.75;0.35;;;;;;;;;;5052628;28;20056;-77
2023/11/08 08:50:08;;;;;;;1.65;0.40;;;;;;;;;;5039518;28;20368;-77
2023/11/08 08:52:35;;;;;;;0.52;0.30;;;;;;;;;;5041386;28;20021;-77
2023/11/08 08:55:01;;;;;;;0.30;0.30;;;;;;;;;;5051275;28;20032;-76
2023/11/08 08:57:27;;;;;;;0.38;0.38;;;;;;;;;;5042505;28;20029;-77
2023/11/08 08:59:53;;;;;;;1.45;0.45;;;;;;;;;;5058814;28;20025;-76
2023/11/08 09:02:19;;;;;;;0.85;0.50;;;;;;;;;;5040499;28;20464;-77
2023/11/08 09:04:45;;;;;;;0.40;0.40;;;;;;;;;;5063747;28;20427;-76
2023/11/08 09:07:11;;;;;;;1.20;0.50;;;;;;;;;;5037747;28;20078;-77
2023/11/08 09:09:38;;;;;;;0.90;0.63;;;;;;;;;;5040447;28;20025;-75
2023/11/08 09:12:04;;;;;;;1.90;0.40;;;;;;;;;;5055255;28;20067;-74
2023/11/08 09:14:31;;;;;;;3.67;0.50;;;;;;;;;;5053090;28;20523;-75
2023/11/08 09:16:57;;;;;;;0.60;0.40;;;;;;;;;;5034185;28;20025;-75
2023/11/08 09:19:24;;;;;;;2.53;0.70;;;;;;;;;;5054881;28;20043;-75
2023/11/08 09:21:50;;;;;;;1.27;0.55;;;;;;;;;;5068084;28;20108;-75
2023/11/08 09:24:16;;;;;;;2.65;0.70;;;;;;;;;;5054015;28;20112;-75
2023/11/08 09:26:45;;;;;;;1.92;0.40;;;;;;;;;;5050184;28;20099;-75
2023/11/08 09:29:12;;;;;;;0.73;0.30;;;;;;;;;;5049999;28;20439;-75
2023/11/08 09:31:39;;;;;;;0.52;0.20;;;;;;;;;;5032235;28;20104;-75
2023/11/08 09:34:07;;;;;;;0.88;0.57;;;;;;;;;;5052126;28;20028;-75
2023/11/08 09:36:33;;;;;;;1.25;0.50;;;;;;;;;;5039450;28;20437;-73
2023/11/08 09:38:59;;;;;;;2.70;0.50;;;;;;;;;;5033689;28;20033;-75
2023/11/08 09:41:27;;;;;;;0.98;0.57;;;;;;;;;;5048374;28;20045;-75
2023/11/08 09:43:54;;;;;;;2.58;0.40;;;;;;;;;;5047004;28;20038;-75
2023/11/08 09:46:21;;;;;;;1.75;0.40;;;;;;;;;;5049953;28;20090;-76
2023/11/08 09:48:50;;;;;;;0.70;0.38;;;;;;;;;;5048825;28;20025;-75
2023/11/08 09:51:16;;;;;;;2.88;0.75;;;;;;;;;;5068843;28;20429;-76
2023/11/08 09:53:43;;;;;;;0.65;0.57;;;;;;;;;;5058357;28;20032;-75
2023/11/08 09:56:11;;;;;;;0.98;0.70;;;;;;;;;;5031738;28;20075;-76
2023/11/08 09:58:38;;;;;;;1.48;0.77;;;;;;;;;;5047375;28;20021;-76
2023/11/08 10:01:05;;;;;;;0.85;0.57;;;;;;;;;;5029988;28;20034;-75
2023/11/08 10:03:32;;;;;;;4.43;2.30;;;;;;;;;;5079915;23;20332;-82
2023/11/08 10:05:59;;;;;;;4.40;3.25;;;;;;;;;;5054086;28;20025;-81
2023/11/08 10:08:25;;;;;;;2.47;2.17;;;;;;;;;;5067570;28;20160;-81
2023/11/08 10:10:54;;;;;;;3.00;2.10;;;;;;;;;;5063482;28;20021;-82
2023/11/08 10:13:21;;;;;;;2.10;1.90;;;;;;;;;;5074209;28;20025;-82
2023/11/08 10:15:56;;;;;;;3.17;1.38;;;;;;;;;;5070780;28;20033;-82
2023/11/08 10:18:28;;;;;;;1.30;0.60;;;;;;;;;;5075335;28;20025;-81
2023/11/08 10:20:55;;;;;;;0.85;0.55;;;;;;;;;;5063504;28;20052;-82
2023/11/08 10:23:28;;;;;;;0.47;0.30;;;;;;;;;;5037754;28;20060;-82
2023/11/08 10:26:15;;;;;;;1.17;0.75;;;;;;;;;;5039900;28;20051;-81
2023/11/08 10:29:01;;;;;;;2.63;0.60;;;;;;;;;;5058218;28;20027;-82
2023/11/08 10:31:28;;;;;;;2.55;0.70;;;;;;;;;;5056151;28;20078;-82
2023/11/08 10:33:58;;;;;;;2.20;0.80;;;;;;;;;;5044384;28;20367;-81
2023/11/08 10:36:24;;;;;;;1.98;0.82;;;;;;;;;;5038459;28;20032;-81
2023/11/08 10:38:51;;;;;;;3.13;0.82;;;;;;;;;;5053266;28;20120;-81
2023/11/08 10:41:17;;;;;;;5.22;0.95;;;;;;;;;;5039241;28;20017;-81
2023/11/08 10:43:43;;;;;;;2.10;0.68;;;;;;;;;;5040208;28;20079;-81
2023/11/08 10:46:10;;;;;;;2.15;1.08;;;;;;;;;;5058748;28;20512;-82
2023/11/08 10:48:37;;;;;;;3.72;0.93;;;;;;;;;;5060477;28;20158;-81
2023/11/08 10:51:05;;;;;;;4.13;0.90;;;;;;;;;;5060801;28;20027;-81
2023/11/08 10:53:32;;;;;;;2.00;0.80;;;;;;;;;;5041028;28;20021;-81
2023/11/08 10:56:02;;;;;;;1.23;0.90;;;;;;;;;;5041225;28;20017;-80
2023/11/08 10:58:36;;;;;;;0.65;0.65;;;;;;;;;;5042011;28;20128;-82
2023/11/08 11:01:02;;;;;;;2.33;0.80;;;;;;;;;;5056003;28;20047;-82
2023/11/08 11:03:29;;;;;;;2.70;1.25;;;;;;;;;;5058713;28;20539;-82
2023/11/08 11:05:57;;;;;;;2.33;1.00;;;;;;;;;;5075868;28;20056;-81
2023/11/08 11:08:24;;;;;;;1.50;0.60;;;;;;;;;;5040302;28;20026;-82
2023/11/08 11:10:50;;;;;;;1.70;0.90;;;;;;;;;;5058833;28;20037;-82
2023/11/08 11:13:26;;;;;;;2.22;1.20;;;;;;;;;;5049744;28;20037;-81
2023/11/08 11:15:59;;;;;;;1.33;0.70;;;;;;;;;;5055740;28;20029;-81
2023/11/08 11:18:32;;;;;;;2.05;0.85;;;;;;;;;;5064454;28;20017;-82
2023/11/08 11:21:19;;;;;;;2.53;0.80;;;;;;;;;;5065384;28;20029;-82
2023/11/08 11:23:45;;;;;;;1.80;0.80;;;;;;;;;;5021576;28;20074;-82
2023/11/08 11:26:12;;;;;;;1.42;0.70;;;;;;;;;;5073659;28;20025;-82
2023/11/08 11:28:55;;;;;;;2.65;0.73;;;;;;;;;;5074643;28;20021;-83
2023/11/08 11:31:31;;;;;;;1.67;0.60;;;;;;;;;;5047637;28;20031;-82
2023/11/08 11:33:58;;;;;;;1.08;0.65;;;;;;;;;;5068102;28;20012;-80
2023/11/08 11:36:25;;;;;;;1.98;0.60;;;;;;;;;;5042862;28;20464;-82
2023/11/08 11:39:10;;;;;;;0.70;0.30;;;;;;;;;;5061282;28;20040;-81
2023/11/08 11:41:36;;;;;;;3.05;0.98;;;;;;;;;;5058399;28;20033;-82
2023/11/08 11:44:05;;;;;;;1.58;1.00;;;;;;;;;;5038999;28;20087;-82
2023/11/08 11:46:33;;;;;;;1.15;0.75;;;;;;;;;;5061902;28;20202;-79
2023/11/08 11:49:08;;;;;;;1.80;0.90;;;;;;;;;;5061288;28;20017;-81
2023/11/08 11:51:35;;;;;;;1.45;0.80;;;;;;;;;;5056543;28;20025;-82
2023/11/08 11:54:01;;;;;;;1.10;1.00;;;;;;;;;;5059791;28;20033;-81
2023/11/08 11:56:28;;;;;;;2.67;0.90;;;;;;;;;;5059618;28;20140;-81
2023/11/08 11:58:54;;;;;;;3.42;1.15;;;;;;;;;;5055359;28;20052;-81
2023/11/08 12:01:22;;;;;;;1.92;0.70;;;;;;;;;;5065116;28;20029;-82
2023/11/08 12:03:48;;;;;;;2.90;0.90;;;;;;;;;;5050246;28;20483;-80
2023/11/08 12:06:14;;;;;;;0.95;0.50;;;;;;;;;;5073009;28;20539;-81
2023/11/08 12:08:41;;;;;;;1.67;0.63;;;;;;;;;;5047872;28;20450;-81
2023/11/08 12:11:14;;;;;;;1.75;0.85;;;;;;;;;;5044873;28;20033;-80
2023/11/08 12:14:07;;;;;;;1.13;0.68;;;;;;;;;;5061162;28;20088;-80
2023/11/08 12:16:33;;;;;;;2.42;0.85;;;;;;;;;;5063415;28;20105;-80
2023/11/08 12:18:59;;;;;;;1.67;0.80;;;;;;;;;;5058717;28;20037;-79
2023/11/08 12:21:28;;;;;;;3.05;0.90;;;;;;;;;;5069166;28;20033;-80
2023/11/08 12:23:54;;;;;;;2.80;1.20;;;;;;;;;;5070260;28;20109;-78
2023/11/08 12:26:20;;;;;;;1.13;0.60;;;;;;;;;;5065481;28;20089;-80
2023/11/08 12:28:46;;;;;;;1.42;0.88;;;;;;;;;;5046387;28;20111;-80
2023/11/08 12:31:14;;;;;;;1.38;0.90;;;;;;;;;;5038291;28;20028;-80
2023/11/08 12:33:40;;;;;;;3.47;1.30;;;;;;;;;;5062024;28;20024;-81
2023/11/08 12:36:09;;;;;;;1.10;0.80;;;;;;;;;;5064225;28;20028;-80
2023/11/08 12:38:36;;;;;;;3.88;1.00;;;;;;;;;;5068567;28;20057;-80
2023/11/08 12:41:03;;;;;;;1.38;0.50;;;;;;;;;;5063782;28;20266;-80
2023/11/08 12:43:29;;;;;;;4.72;0.80;;;;;;;;;;5065791;28;20087;-80
2023/11/08 12:46:01;;;;;;;1.50;0.60;;;;;;;;;;5040938;28;20021;-80
2023/11/08 12:48:27;;;;;;;;;;;;;;;;;;5063129;28;20058;-81
2023/11/08 12:50:53;;;;;;;3.28;1.05;;;;;;;;;;5062044;28;19912;-81
2023/11/08 12:53:20;;;;;;;5.75;1.15;;;;;;;;;;5044074;28;20448;-82
2023/11/08 12:55:46;;;;;;;1.13;0.60;;;;;;;;;;5063888;28;20088;-81
2023/11/08 12:58:27;;;;;;;2.15;0.40;;;;;;;;;;5066236;28;20021;-81
2023/11/08 13:00:53;;;;;;;1.65;0.70;;;;;;;;;;5069579;28;20028;-80
2023/11/08 13:03:31;;;;;;;1.38;0.65;;;;;;;;;;5069291;28;20032;-82
2023/11/08 13:06:00;;;;;;;0.88;0.82;;;;;;;;;;5051207;28;20028;-81
2023/11/08 13:08:27;;;;;;;0.70;0.70;;;;;;;;;;5063188;28;20155;-80
2023/11/08 13:10:54;;;;;;;2.00;0.77;;;;;;;;;;5062969;28;20127;-81
2023/11/08 13:13:20;;;;;;;1.20;0.60;;;;;;;;;;5060318;28;20024;-78
2023/11/08 13:15:47;;;;;;;0.70;0.60;;;;;;;;;;5059992;28;20033;-79
2023/11/08 13:18:14;;;;;;;1.17;0.73;;;;;;;;;;5052496;28;20017;-80
2023/11/08 13:20:40;;;;;;;1.65;0.90;;;;;;;;;;5060025;28;20496;-79
2023/11/08 13:23:10;;;;;;;2.15;1.00;;;;;;;;;;5063764;28;20025;-82
2023/11/08 13:25:36;;;;;;;1.85;1.05;;;;;;;;;;5065594;28;20028;-79
2023/11/08 13:28:02;;;;;;;1.08;0.70;;;;;;;;;;5045112;28;20025;-80
2023/11/08 13:30:29;;;;;;;1.88;0.98;;;;;;;;;;5062055;28;20433;-80
2023/11/08 13:32:55;;;;;;;3.05;1.08;;;;;;;;;;5063231;28;20017;-81
2023/11/08 13:35:21;;;;;;;1.88;0.77;;;;;;;;;;5073542;28;20499;-81
2023/11/08 13:37:48;;;;;;;1.38;0.70;;;;;;;;;;5036803;28;20033;-80
2023/11/08 13:40:14;;;;;;;1.65;0.85;;;;;;;;;;5059004;28;20029;-79
2023/11/08 13:42:41;;;;;;;0.80;0.60;;;;;;;;;;5065322;28;20510;-80
2023/11/08 13:45:07;;;;;;;1.08;0.60;;;;;;;;;;5060571;28;20044;-79
2023/11/08 13:47:39;;;;;;;0.82;0.55;;;;;;;;;;5060737;28;20048;-81
2023/11/08 13:50:06;;;;;;;0.80;0.77;;;;;;;;;;5061280;28;20025;-80
2023/11/08 13:52:32;;;;;;;1.95;0.60;;;;;;;;;;5040004;28;20033;-78
2023/11/08 13:55:02;;;;;;;2.25;0.60;;;;;;;;;;5065579;28;20021;-79
2023/11/08 13:57:29;;;;;;;0.75;0.75;;;;;;;;;;5041538;28;20028;-80
2023/11/08 13:59:55;;;;;;;3.70;0.90;;;;;;;;;;5042962;28;20112;-81
2023/11/08 14:02:22;;;;;;;1.63;0.80;;;;;;;;;;5042108;28;20025;-81
2023/11/08 14:04:48;;;;;;;2.80;0.57;;;;;;;;;;5064622;28;20029;-83
2023/11/08 14:07:14;;;;;;;1.60;0.70;;;;;;;;;;5059729;28;20495;-81
2023/11/08 14:09:40;;;;;;;1.65;0.65;;;;;;;;;;5056169;28;20025;-80
2023/11/08 14:12:07;;;;;;;2.33;0.98;;;;;;;;;;5065432;28;20013;-79
2023/11/08 14:14:33;;;;;;;1.58;0.45;;;;;;;;;;5070139;28;20041;-80
2023/11/08 14:16:59;;;;;;;1.45;0.60;;;;;;;;;;5075240;28;20060;-80
2023/11/08 14:19:25;;;;;;;1.33;0.57;;;;;;;;;;5072019;28;20017;-79
2023/11/08 14:21:51;;;;;;;4.03;0.70;;;;;;;;;;5075200;28;20017;-79
2023/11/08 14:24:17;;;;;;;3.50;0.50;;;;;;;;;;5053720;28;20035;-80
2023/11/08 14:26:43;;;;;;;0.93;0.57;;;;;;;;;;5074104;28;20025;-79
2023/11/08 14:29:15;;;;;;;1.83;0.70;;;;;;;;;;5056883;28;20074;-80
2023/11/08 14:31:41;;;;;;;1.45;0.50;;;;;;;;;;5072154;28;20047;-80
2023/11/08 14:34:07;;;;;;;1.50;0.60;;;;;;;;;;5062399;28;20494;-81
2023/11/08 14:36:34;;;;;;;0.93;0.73;;;;;;;;;;5059896;28;20047;-80
2023/11/08 14:39:04;;;;;;;1.50;0.73;;;;;;;;;;5045846;28;20041;-79
2023/11/08 14:41:30;;;;;;;1.77;0.45;;;;;;;;;;5061866;28;20048;-79
2023/11/08 14:43:56;;;;;;;0.98;0.50;;;;;;;;;;5041759;28;20032;-81